Walnut, Mississippi
Current Conditions -  °F | °C
As of 6:55 AM on Monday 22 Dec 2014 (Local Time) from KCRX Reporting Station
Overcast Overcast  
Wind Chill: 50°   Ceiling: 700
Heat Index: 50°   Visibility: 10mi
Dew Point: 46°   Wind: 9mph
Humidity: 87%   Direction: 150°SSE
Pressure: 29.89"   Gusts: NA
Location:  34.95°N, 88.9°W
Report Text: KCRX 221255Z AUTO 15008KT 10SM OVC007 10/08 A2989 RMK AO2
Loading
Personal Weather Stations






























Interactive Weather Map New forecast layout! Learn more

10-Day Weather Forecast

Advertisements
Track Severe Weather on mobile